createdAt,value
2018-04-13T00:01:41.462Z,2.13
2018-04-13T00:04:09.056Z,2.10
2018-04-13T00:06:36.650Z,2.30
2018-04-13T00:09:04.286Z,4.20
2018-04-13T00:11:31.883Z,2.67
2018-04-13T00:13:59.658Z,2.10
2018-04-13T00:16:27.286Z,2.07
2018-04-13T00:18:54.882Z,2.40
2018-04-13T00:21:22.499Z,2.47
2018-04-13T00:23:50.094Z,1.87
2018-04-13T00:26:17.722Z,2.73
2018-04-13T00:28:45.305Z,2.00
2018-04-13T00:31:12.924Z,2.30
2018-04-13T00:33:40.536Z,1.93
2018-04-13T00:36:08.127Z,1.80
2018-04-13T00:38:35.751Z,2.30
2018-04-13T00:41:03.341Z,1.90
2018-04-13T00:43:31.102Z,2.10
2018-04-13T00:45:58.699Z,2.00
2018-04-13T00:48:26.294Z,1.83
2018-04-13T00:50:53.902Z,2.03
2018-04-13T00:53:29.367Z,2.40
2018-04-13T00:55:56.978Z,2.53
2018-04-13T00:58:24.574Z,2.20
2018-04-13T01:00:52.183Z,1.80
2018-04-13T01:03:19.810Z,2.53
2018-04-13T01:05:47.449Z,2.50
2018-04-13T01:08:15.248Z,2.23
2018-04-13T01:10:42.834Z,1.83
2018-04-13T01:13:10.424Z,1.87
2018-04-13T01:15:38.043Z,2.00
2018-04-13T01:18:05.689Z,1.87
2018-04-13T01:20:33.594Z,1.50
2018-04-13T01:23:01.187Z,1.63
2018-04-13T01:25:28.783Z,1.90
2018-04-13T01:27:56.394Z,3.30
2018-04-13T01:30:23.991Z,2.10
2018-04-13T01:32:51.607Z,1.50
2018-04-13T01:35:19.224Z,2.20
2018-04-13T01:37:46.856Z,1.43
2018-04-13T01:40:14.447Z,1.80
2018-04-13T01:42:42.070Z,1.63
2018-04-13T01:45:09.663Z,1.67
2018-04-13T01:47:37.509Z,2.27
2018-04-13T01:50:05.207Z,1.80
2018-04-13T01:52:32.800Z,2.10
2018-04-13T01:55:00.410Z,1.67
2018-04-13T01:57:27.998Z,2.70
2018-04-13T01:59:55.609Z,2.00
2018-04-13T02:02:23.215Z,1.70
2018-04-13T02:04:50.823Z,2.47
2018-04-13T02:07:18.416Z,2.10
2018-04-13T02:09:46.154Z,3.27
2018-04-13T02:12:13.739Z,1.83
2018-04-13T02:14:41.336Z,1.80
2018-04-13T02:17:08.972Z,2.13
2018-04-13T02:19:36.558Z,3.30
2018-04-13T02:22:04.172Z,1.97
2018-04-13T02:24:31.770Z,2.30
2018-04-13T02:26:59.548Z,2.23
2018-04-13T02:29:27.144Z,1.70
2018-04-13T02:31:54.739Z,3.23
2018-04-13T02:34:22.444Z,2.03
2018-04-13T02:36:49.979Z,1.63
2018-04-13T02:39:17.583Z,1.63
2018-04-13T02:41:45.717Z,2.00
2018-04-13T02:44:13.379Z,1.60
2018-04-13T02:46:40.976Z,2.00
2018-04-13T02:49:08.580Z,1.20
2018-04-13T02:51:36.218Z,1.93
2018-04-13T02:54:03.819Z,1.67
2018-04-13T02:56:31.436Z,1.70
2018-04-13T02:58:59.166Z,1.83
2018-04-13T03:01:27.061Z,1.50
2018-04-13T03:03:54.658Z,1.43
2018-04-13T03:06:22.246Z,1.60
2018-04-13T03:08:49.871Z,2.17
2018-04-13T03:11:17.473Z,1.80
2018-04-13T03:13:45.099Z,2.10
2018-04-13T03:16:12.692Z,1.70
2018-04-13T03:18:40.666Z,1.77
2018-04-13T03:21:08.258Z,1.40
2018-04-13T03:23:35.861Z,1.30
2018-04-13T03:26:03.481Z,1.40
2018-04-13T03:28:31.074Z,1.13
2018-04-13T03:30:58.686Z,1.07
2018-04-13T03:33:26.271Z,1.13
2018-04-13T03:35:54.018Z,1.30
2018-04-13T03:38:21.612Z,2.13
2018-04-13T03:40:49.199Z,1.30
2018-04-13T03:43:16.837Z,1.67
2018-04-13T03:45:44.430Z,1.43
2018-04-13T03:48:12.045Z,1.70
2018-04-13T03:50:39.635Z,1.60
2018-04-13T03:53:07.271Z,1.33
2018-04-13T03:55:34.878Z,1.10
2018-04-13T03:58:02.465Z,1.60
2018-04-13T04:00:30.082Z,1.63
2018-04-13T04:02:57.671Z,1.23
2018-04-13T04:05:25.379Z,1.80
2018-04-13T04:07:52.969Z,2.30
2018-04-13T04:10:20.620Z,1.13
2018-04-13T04:12:48.210Z,1.40
2018-04-13T04:15:15.797Z,1.10
2018-04-13T04:17:43.416Z,1.77
2018-04-13T04:20:22.810Z,1.60
2018-04-13T04:23:02.152Z,1.30
2018-04-13T04:28:36.841Z,1.07
2018-04-13T04:31:04.430Z,1.60
2018-04-13T04:33:32.048Z,1.10
2018-04-13T04:35:59.636Z,1.50
2018-04-13T04:38:28.065Z,2.10
2018-04-13T04:40:55.650Z,1.80
2018-04-13T04:43:23.242Z,1.73
2018-04-13T04:45:50.877Z,1.83
2018-04-13T04:48:18.467Z,1.40
2018-04-13T04:50:46.088Z,1.77
2018-04-13T04:53:13.704Z,1.67
2018-04-13T04:55:41.336Z,1.80
2018-04-13T04:58:08.926Z,1.50
2018-04-13T05:00:36.539Z,1.93
2018-04-13T05:03:04.159Z,2.30
2018-04-13T05:05:31.743Z,2.10
2018-04-13T05:07:59.369Z,2.13
2018-04-13T05:10:27.401Z,2.63
2018-04-13T05:12:55.032Z,2.57
2018-04-13T05:15:22.632Z,1.83
2018-04-13T05:17:50.219Z,3.10
2018-04-13T05:20:17.863Z,2.37
2018-04-13T05:22:45.450Z,2.00
2018-04-13T05:25:13.068Z,2.20
2018-04-13T05:27:40.672Z,2.80
2018-04-13T05:30:08.771Z,2.77
2018-04-13T05:32:36.359Z,2.80
2018-04-13T05:35:03.947Z,3.10
2018-04-13T05:37:31.570Z,2.97
2018-04-13T05:39:59.159Z,2.00
2018-04-13T05:42:26.779Z,2.20
2018-04-13T05:44:54.450Z,3.23
2018-04-13T05:47:22.085Z,2.67
2018-04-13T05:49:49.679Z,2.50
2018-04-13T05:52:17.284Z,3.20
2018-04-13T05:54:45.043Z,3.90
2018-04-13T05:57:12.643Z,3.80
2018-04-13T05:59:40.263Z,3.33
2018-04-13T06:02:07.981Z,2.70
2018-04-13T06:04:35.908Z,3.10
2018-04-13T06:07:03.505Z,4.60
2018-04-13T06:09:31.090Z,4.80
2018-04-13T06:11:58.705Z,4.20
2018-04-13T06:14:26.299Z,3.50
2018-04-13T06:16:53.948Z,3.93
2018-04-13T06:19:21.537Z,3.80
2018-04-13T06:21:49.186Z,4.40
2018-04-13T06:24:16.791Z,4.20
2018-04-13T06:26:44.397Z,3.90
2018-04-13T06:29:12.028Z,4.20
2018-04-13T06:31:39.630Z,4.17
2018-04-13T06:34:07.258Z,5.20
2018-04-13T06:36:34.876Z,4.50
2018-04-13T06:39:02.523Z,4.40
2018-04-13T06:41:30.117Z,4.40
2018-04-13T06:43:57.731Z,4.80
2018-04-13T06:46:25.343Z,4.60
2018-04-13T06:48:52.961Z,4.60
2018-04-13T06:51:20.577Z,4.00
2018-04-13T06:53:48.170Z,4.17
2018-04-13T06:56:15.993Z,4.60
2018-04-13T06:58:43.652Z,6.00
2018-04-13T07:01:11.300Z,4.70
2018-04-13T07:03:38.910Z,4.63
2018-04-13T07:06:06.531Z,4.33
2018-04-13T07:08:34.144Z,3.97
2018-04-13T07:11:01.735Z,4.93
2018-04-13T07:13:29.365Z,4.63
2018-04-13T07:15:56.963Z,3.60
2018-04-13T07:18:24.553Z,4.33
2018-04-13T07:20:52.170Z,4.67
2018-04-13T07:23:19.756Z,4.40
2018-04-13T07:25:47.370Z,3.83
2018-04-13T07:28:14.971Z,2.90
2018-04-13T07:30:42.877Z,3.10
2018-04-13T07:33:10.474Z,3.80
2018-04-13T07:35:38.071Z,2.87
2018-04-13T07:38:05.791Z,2.80
2018-04-13T07:40:33.386Z,3.07
2018-04-13T07:43:00.999Z,2.23
2018-04-13T07:45:28.842Z,3.87
2018-04-13T07:47:56.853Z,2.97
2018-04-13T07:50:24.305Z,3.53
2018-04-13T07:52:51.910Z,2.80
2018-04-13T07:55:19.527Z,3.23
2018-04-13T07:57:47.122Z,2.83
2018-04-13T08:00:14.731Z,4.00
2018-04-13T08:02:42.315Z,3.80
2018-04-13T08:05:10.940Z,4.10
2018-04-13T08:07:38.534Z,3.90
2018-04-13T08:10:06.141Z,3.53
2018-04-13T08:12:33.750Z,4.03
2018-04-13T08:15:01.362Z,4.33
2018-04-13T08:17:29.374Z,4.03
2018-04-13T08:19:57.321Z,4.40
2018-04-13T08:22:25.146Z,5.00
2018-04-13T08:24:52.759Z,5.90
2018-04-13T08:27:20.360Z,5.37
2018-04-13T08:29:48.190Z,5.77
2018-04-13T08:32:15.751Z,4.77
2018-04-13T08:34:43.357Z,4.83
2018-04-13T08:37:10.966Z,5.10
2018-04-13T08:39:38.560Z,4.83
2018-04-13T08:42:06.386Z,6.97
2018-04-13T08:44:33.986Z,5.27
2018-04-13T08:47:01.928Z,8.50
2018-04-13T08:49:29.765Z,5.80
2018-04-13T08:51:57.378Z,5.87
2018-04-13T08:54:24.990Z,6.43
2018-04-13T08:56:52.959Z,5.70
2018-04-13T08:59:20.770Z,6.30
2018-04-13T09:01:48.483Z,6.10
2018-04-13T09:04:16.632Z,4.80
2018-04-13T09:06:44.223Z,5.90
2018-04-13T09:09:11.805Z,4.70
2018-04-13T09:11:39.543Z,5.33
2018-04-13T09:14:07.164Z,5.47
2018-04-13T09:16:35.078Z,5.57
2018-04-13T09:19:02.835Z,7.00
2018-04-13T09:21:30.466Z,5.40
2018-04-13T09:23:58.339Z,5.93
2018-04-13T09:26:27.955Z,7.47
2018-04-13T09:28:55.570Z,5.83
2018-04-13T09:31:23.184Z,5.77
2018-04-13T09:33:50.842Z,5.80
2018-04-13T09:36:18.446Z,6.13
2018-04-13T09:38:46.508Z,5.60
2018-04-13T09:41:14.126Z,5.07
2018-04-13T09:43:41.730Z,5.93
2018-04-13T09:46:09.733Z,6.00
2018-04-13T09:48:37.660Z,5.67
2018-04-13T09:51:05.628Z,6.20
2018-04-13T09:53:33.227Z,6.40
2018-04-13T09:56:00.855Z,6.10
2018-04-13T09:58:28.870Z,5.57
2018-04-13T10:01:00.445Z,5.20
2018-04-13T10:03:28.235Z,4.93
2018-04-13T10:05:55.872Z,5.93
2018-04-13T10:08:23.508Z,5.50
2018-04-13T10:10:51.098Z,4.73
2018-04-13T10:13:18.721Z,6.37
2018-04-13T10:15:46.466Z,6.77
2018-04-13T10:18:14.526Z,6.67
2018-04-13T10:20:42.239Z,5.33
2018-04-13T10:23:09.829Z,4.10
2018-04-13T10:25:37.452Z,4.70
2018-04-13T10:28:05.034Z,4.87
2018-04-13T10:30:32.655Z,4.37
2018-04-13T10:33:00.260Z,3.90
2018-04-13T10:35:28.030Z,4.60
2018-04-13T10:37:55.641Z,4.60
2018-04-13T10:40:23.222Z,5.73
2018-04-13T10:42:50.956Z,5.60
2018-04-13T10:45:18.657Z,4.90
2018-04-13T10:47:46.282Z,4.60
2018-04-13T10:50:13.892Z,5.63
2018-04-13T10:52:41.553Z,5.30
2018-04-13T10:55:09.157Z,7.33
2018-04-13T10:57:36.755Z,6.50
2018-04-13T11:00:04.386Z,6.90
2018-04-13T11:02:31.997Z,7.47
2018-04-13T11:04:59.627Z,7.97
2018-04-13T11:07:27.218Z,8.53
2018-04-13T11:09:54.998Z,9.63
2018-04-13T11:12:22.594Z,10.10
2018-04-13T11:14:50.193Z,10.00
2018-04-13T11:17:17.814Z,9.70
2018-04-13T11:19:45.415Z,10.53
2018-04-13T11:22:13.058Z,11.27
2018-04-13T11:24:40.698Z,10.43
2018-04-13T11:27:08.638Z,10.67
2018-04-13T11:29:36.234Z,10.70
2018-04-13T11:32:03.833Z,11.83
2018-04-13T11:34:31.454Z,11.07
2018-04-13T11:36:59.051Z,10.97
2018-04-13T11:39:26.836Z,11.40
2018-04-13T11:41:54.442Z,13.50
2018-04-13T11:44:22.482Z,10.70
2018-04-13T11:46:53.755Z,10.43
2018-04-13T11:49:24.950Z,10.60
2018-04-13T11:51:55.391Z,12.73
2018-04-13T11:54:26.062Z,12.23
2018-04-13T11:56:55.402Z,9.33
2018-04-13T11:59:26.055Z,9.17
2018-04-13T12:02:05.035Z,10.90
2018-04-13T12:04:41.236Z,9.87
2018-04-13T12:07:17.433Z,8.77
2018-04-13T12:09:58.643Z,7.60
2018-04-13T12:12:34.648Z,9.30
2018-04-13T12:15:06.065Z,7.43
2018-04-13T12:17:42.814Z,7.10
2018-04-13T12:20:11.488Z,7.40
2018-04-13T12:22:39.073Z,6.90
2018-04-13T12:25:06.673Z,5.53
2018-04-13T12:27:35.087Z,5.57
2018-04-13T12:30:02.865Z,4.47
2018-04-13T12:32:30.830Z,4.30
2018-04-13T12:34:58.865Z,4.50
2018-04-13T12:37:26.679Z,3.60
2018-04-13T12:39:54.280Z,4.50
2018-04-13T12:42:27.841Z,5.10
2018-04-13T12:44:59.385Z,4.67
2018-04-13T12:47:33.118Z,5.63
2018-04-13T12:50:09.244Z,6.30
2018-04-13T12:52:43.662Z,6.70
2018-04-13T12:55:21.755Z,6.83
2018-04-13T12:57:58.966Z,7.53
2018-04-13T13:00:35.335Z,9.27
2018-04-13T13:03:03.832Z,11.13
2018-04-13T13:05:31.744Z,15.30
2018-04-13T13:07:59.393Z,17.17
2018-04-13T13:10:27.003Z,18.50
2018-04-13T13:12:54.688Z,19.57
2018-04-13T13:15:23.518Z,19.57
2018-04-13T13:17:51.195Z,18.10
2018-04-13T13:20:18.846Z,17.47
2018-04-13T13:22:46.551Z,15.93
2018-04-13T13:25:14.147Z,16.77
2018-04-13T13:27:41.743Z,11.67
2018-04-13T13:30:09.738Z,9.50
2018-04-13T13:32:37.517Z,9.57
2018-04-13T13:35:05.378Z,5.37
2018-04-13T13:37:32.994Z,6.90
2018-04-13T13:40:00.638Z,6.53
2018-04-13T13:42:28.256Z,6.33
2018-04-13T13:44:55.855Z,7.57
2018-04-13T13:47:23.497Z,6.87
2018-04-13T13:49:51.093Z,7.53
2018-04-13T13:52:19.008Z,8.10
2018-04-13T13:54:46.645Z,8.13
2018-04-13T13:57:14.212Z,7.00
2018-04-13T13:59:42.208Z,8.17
2018-04-13T14:02:10.083Z,9.00
2018-04-13T14:04:37.913Z,7.73
2018-04-13T14:07:05.506Z,7.90
2018-04-13T14:09:33.140Z,7.17
2018-04-13T14:12:00.775Z,6.53
2018-04-13T14:14:28.384Z,6.13
2018-04-13T14:16:56.012Z,5.63
2018-04-13T14:19:23.707Z,6.50
2018-04-13T14:21:51.666Z,6.23
2018-04-13T14:24:19.260Z,4.57
2018-04-13T14:26:46.994Z,4.67
2018-04-13T14:29:14.707Z,3.93
2018-04-13T14:31:42.796Z,3.97
2018-04-13T14:34:10.720Z,4.20
2018-04-13T14:36:38.312Z,3.00
2018-04-13T14:39:06.322Z,3.40
2018-04-13T14:41:33.915Z,3.20
2018-04-13T14:44:01.518Z,2.63
2018-04-13T14:46:29.219Z,2.50
2018-04-13T14:48:56.775Z,2.23
2018-04-13T14:51:24.381Z,3.20
2018-04-13T14:53:52.017Z,2.70
2018-04-13T14:56:19.652Z,3.20
2018-04-13T14:58:47.254Z,2.93
2018-04-13T15:01:15.106Z,2.90
2018-04-13T15:03:42.983Z,2.57
2018-04-13T15:06:10.571Z,2.20
2018-04-13T15:08:38.192Z,3.03
2018-04-13T15:11:06.511Z,2.30
2018-04-13T15:13:34.325Z,2.40
2018-04-13T15:16:01.936Z,2.10
2018-04-13T15:18:29.529Z,2.30
2018-04-13T15:20:57.147Z,2.60
2018-04-13T15:23:24.733Z,2.33
2018-04-13T15:25:52.347Z,3.23
2018-04-13T15:28:19.942Z,3.10
2018-04-13T15:30:47.879Z,2.03
2018-04-13T15:33:15.800Z,2.07
2018-04-13T15:35:43.384Z,2.57
2018-04-13T15:38:11.061Z,2.20
2018-04-13T15:40:38.659Z,1.57
2018-04-13T15:43:06.285Z,0.90
2018-04-13T15:45:33.865Z,1.30
2018-04-13T15:48:01.497Z,0.80
2018-04-13T15:50:29.135Z,1.10
2018-04-13T15:52:56.729Z,1.27
2018-04-13T15:55:24.709Z,1.07
2018-04-13T15:57:52.551Z,1.10
2018-04-13T16:00:20.546Z,1.50
2018-04-13T16:02:48.415Z,1.13
2018-04-13T16:05:16.288Z,1.63
2018-04-13T16:07:43.890Z,1.30
2018-04-13T16:10:11.494Z,1.53
2018-04-13T16:12:39.095Z,1.10
2018-04-13T16:15:07.031Z,1.63
2018-04-13T16:17:34.631Z,0.97
2018-04-13T16:20:04.151Z,1.17
2018-04-13T16:22:31.782Z,0.97
2018-04-13T16:24:59.378Z,1.13
2018-04-13T16:27:26.998Z,1.10
2018-04-13T16:29:54.588Z,1.20
2018-04-13T16:32:22.603Z,1.03
2018-04-13T16:34:50.199Z,1.07
2018-04-13T16:37:17.786Z,0.87
2018-04-13T16:39:45.416Z,1.30
2018-04-13T16:42:13.007Z,1.43
2018-04-13T16:44:40.619Z,1.10
2018-04-13T16:47:08.210Z,1.00
2018-04-13T16:49:36.266Z,1.20
2018-04-13T16:52:03.897Z,1.40
2018-04-13T16:54:31.490Z,1.27
2018-04-13T16:56:59.119Z,1.20
2018-04-13T16:59:26.712Z,1.60
2018-04-13T17:01:54.331Z,1.30
2018-04-13T17:04:22.340Z,1.40
2018-04-13T17:06:50.178Z,1.53
2018-04-13T17:09:17.782Z,1.93
2018-04-13T17:11:45.368Z,1.70
2018-04-13T17:14:13.018Z,2.00
2018-04-13T17:16:40.613Z,2.20
2018-04-13T17:19:08.232Z,2.00
2018-04-13T17:21:35.817Z,2.00
2018-04-13T17:24:03.602Z,2.13
2018-04-13T17:26:31.404Z,1.93
2018-04-13T17:28:58.992Z,2.60
2018-04-13T17:31:26.640Z,2.20
2018-04-13T17:33:54.310Z,1.87
2018-04-13T17:36:21.950Z,2.10
2018-04-13T17:38:49.539Z,2.60
2018-04-13T17:41:17.447Z,2.80
2018-04-13T17:43:45.036Z,1.83
2018-04-13T17:46:12.635Z,1.87
2018-04-13T17:48:40.378Z,2.20
2018-04-13T17:51:07.978Z,1.83
2018-04-13T17:53:35.626Z,1.80
2018-04-13T17:56:03.221Z,1.93
2018-04-13T17:58:30.988Z,1.67
2018-04-13T18:00:58.581Z,1.90
2018-04-13T18:03:26.178Z,2.47
2018-04-13T18:05:53.798Z,1.80
2018-04-13T18:08:21.386Z,1.60
2018-04-13T18:10:49.035Z,2.00
2018-04-13T18:13:16.625Z,2.57
2018-04-13T18:15:44.213Z,2.90
2018-04-13T18:18:11.830Z,1.90
2018-04-13T18:20:39.435Z,2.53
2018-04-13T18:23:07.058Z,2.00
2018-04-13T18:25:34.646Z,1.90
2018-04-13T18:28:02.585Z,2.40
2018-04-13T18:30:30.180Z,2.67
2018-04-13T18:32:57.769Z,3.00
2018-04-13T18:35:25.382Z,2.50
2018-04-13T18:37:52.999Z,3.40
2018-04-13T18:40:20.622Z,2.07
2018-04-13T18:42:48.226Z,2.20
2018-04-13T18:45:15.901Z,2.63
2018-04-13T18:47:43.487Z,2.23
2018-04-13T18:50:11.091Z,2.80
2018-04-13T18:52:38.712Z,2.87
2018-04-13T18:55:06.307Z,2.80
2018-04-13T18:57:35.313Z,2.93
2018-04-13T19:00:03.485Z,2.80
2018-04-13T19:02:31.330Z,2.10
2018-04-13T19:04:58.938Z,2.50
2018-04-13T19:07:26.582Z,2.03
2018-04-13T19:09:54.204Z,2.80
2018-04-13T19:12:21.803Z,2.37
2018-04-13T19:14:49.451Z,3.00
2018-04-13T19:17:17.043Z,2.80
2018-04-13T19:19:44.682Z,4.40
2018-04-13T19:22:12.269Z,3.77
2018-04-13T19:24:39.864Z,3.57
2018-04-13T19:27:07.479Z,3.60
2018-04-13T19:29:35.070Z,4.70
2018-04-13T19:32:02.736Z,4.97
2018-04-13T19:34:30.335Z,4.97
2018-04-13T19:36:57.991Z,4.30
2018-04-13T19:39:25.607Z,4.07
2018-04-13T19:41:53.201Z,4.40
2018-04-13T19:44:20.840Z,4.17
2018-04-13T19:46:48.434Z,4.90
2018-04-13T19:49:16.026Z,4.40
2018-04-13T19:51:43.646Z,3.53
2018-04-13T19:54:11.238Z,3.77
2018-04-13T19:56:38.843Z,3.53
2018-04-13T19:59:06.451Z,3.57
2018-04-13T20:01:34.792Z,3.37
2018-04-13T20:04:02.389Z,3.10
2018-04-13T20:06:29.983Z,3.37
2018-04-13T20:08:57.609Z,3.33
2018-04-13T20:11:25.194Z,4.13
2018-04-13T20:13:52.799Z,4.00
2018-04-13T20:16:22.132Z,3.20
2018-04-13T20:18:50.000Z,4.73
2018-04-13T20:21:17.595Z,8.63
2018-04-13T20:23:45.195Z,4.90
2018-04-13T20:26:12.813Z,3.57
2018-04-13T20:28:40.415Z,4.30
2018-04-13T20:31:08.081Z,3.87
2018-04-13T20:33:36.491Z,3.93
2018-04-13T20:36:04.459Z,3.83
2018-04-13T20:38:32.101Z,6.37
2018-04-13T20:40:59.683Z,4.20
2018-04-13T20:43:27.308Z,5.50
2018-04-13T20:45:54.912Z,4.40
2018-04-13T20:48:22.534Z,5.07
2018-04-13T20:50:50.119Z,3.97
2018-04-13T20:53:17.745Z,4.70
2018-04-13T20:55:45.342Z,5.07
2018-04-13T20:58:13.211Z,3.90
2018-04-13T21:00:40.805Z,4.60
2018-04-13T21:03:08.403Z,3.40
2018-04-13T21:05:36.031Z,5.80
2018-04-13T21:08:03.698Z,6.80
2018-04-13T21:10:31.333Z,8.30
2018-04-13T21:12:58.928Z,4.87
2018-04-13T21:15:26.547Z,5.20
2018-04-13T21:17:54.180Z,7.40
2018-04-13T21:20:22.085Z,5.90
2018-04-13T21:22:49.690Z,8.00
2018-04-13T21:25:17.282Z,4.13
2018-04-13T21:27:44.935Z,6.70
2018-04-13T21:30:12.523Z,3.40
2018-04-13T21:32:40.140Z,3.83
2018-04-13T21:35:08.103Z,3.50
2018-04-13T21:37:36.123Z,3.80
2018-04-13T21:40:03.735Z,4.80
2018-04-13T21:42:31.333Z,4.03
2018-04-13T21:44:58.941Z,5.07
2018-04-13T21:47:26.545Z,5.63
2018-04-13T21:49:54.170Z,5.60
2018-04-13T21:52:21.770Z,5.50
2018-04-13T21:54:49.418Z,5.00
2018-04-13T21:57:17.012Z,4.30
2018-04-13T21:59:44.606Z,4.77
2018-04-13T22:02:12.227Z,4.00
2018-04-13T22:04:39.842Z,3.00
2018-04-13T22:07:07.472Z,3.10
2018-04-13T22:09:35.068Z,3.30
2018-04-13T22:12:02.693Z,4.10
2018-04-13T22:14:42.008Z,4.17
2018-04-13T22:17:09.667Z,4.73
2018-04-13T22:19:37.278Z,7.67
2018-04-13T22:22:04.871Z,8.00
2018-04-13T22:24:32.503Z,10.30
2018-04-13T22:27:00.095Z,8.00
2018-04-13T22:29:27.719Z,5.33
2018-04-13T22:31:55.309Z,3.93
2018-04-13T22:34:23.034Z,3.80
2018-04-13T22:36:50.634Z,3.73
2018-04-13T22:39:18.225Z,4.13
2018-04-13T22:41:45.846Z,4.47
2018-04-13T22:44:13.439Z,4.50
2018-04-13T22:46:41.056Z,4.60
2018-04-13T22:49:08.648Z,4.90
2018-04-13T22:51:36.286Z,3.90
2018-04-13T22:54:03.892Z,3.50
2018-04-13T22:56:31.484Z,4.03
2018-04-13T22:58:59.098Z,4.53
2018-04-13T23:01:26.689Z,3.80
2018-04-13T23:03:54.304Z,3.47
2018-04-13T23:06:21.918Z,10.70
2018-04-13T23:08:49.869Z,19.20
2018-04-13T23:11:17.472Z,18.23
2018-04-13T23:13:45.066Z,9.13
2018-04-13T23:16:12.698Z,10.13
2018-04-13T23:18:40.302Z,4.83
2018-04-13T23:21:07.915Z,5.20
2018-04-13T23:23:35.507Z,4.73
2018-04-13T23:26:03.130Z,4.57
2018-04-13T23:28:30.736Z,4.20
2018-04-13T23:30:58.318Z,3.83
2018-04-13T23:33:25.932Z,3.77
2018-04-13T23:35:53.524Z,3.90
2018-04-13T23:38:21.143Z,4.93
2018-04-13T23:40:48.731Z,5.40
2018-04-13T23:43:16.327Z,5.93
2018-04-13T23:45:43.946Z,4.77
2018-04-13T23:48:11.538Z,4.30
2018-04-13T23:50:39.161Z,4.60
2018-04-13T23:53:06.778Z,11.00
2018-04-13T23:55:34.428Z,13.43
2018-04-13T23:58:02.104Z,14.30
